createdAt,value
2022-08-08T00:01:06.579Z,960.68
2022-08-08T00:03:59.321Z,960.65
2022-08-08T00:06:58.379Z,960.62
2022-08-08T00:09:59.563Z,960.64
2022-08-08T00:12:58.945Z,960.61
2022-08-08T00:15:58.705Z,960.68
2022-08-08T00:18:58.642Z,960.67
2022-08-08T00:21:58.819Z,960.68
2022-08-08T00:24:59.445Z,960.61
2022-08-08T00:27:58.722Z,960.6
2022-08-08T00:31:00.980Z,960.68
2022-08-08T00:34:18.825Z,960.66
2022-08-08T00:37:03.373Z,960.72
2022-08-08T00:41:09.728Z,960.65
2022-08-08T00:42:58.798Z,960.63
2022-08-08T00:45:59.372Z,960.61
2022-08-08T00:48:59.352Z,960.63
2022-08-08T00:51:58.979Z,960.65
2022-08-08T00:54:59.147Z,960.68
2022-08-08T00:57:59.170Z,960.68
2022-08-08T01:00:59.540Z,960.58
2022-08-08T01:04:04.205Z,960.7
2022-08-08T01:07:01.771Z,960.65
2022-08-08T01:09:59.283Z,960.54
2022-08-08T01:12:59.059Z,960.64
2022-08-08T01:15:59.309Z,960.55
2022-08-08T01:18:59.040Z,960.6
2022-08-08T01:22:13.504Z,960.58
2022-08-08T01:24:58.860Z,960.64
2022-08-08T01:28:00.103Z,960.61
2022-08-08T01:30:59.726Z,960.67
2022-08-08T01:34:01.128Z,960.64
2022-08-08T01:36:58.051Z,960.78
2022-08-08T01:39:59.509Z,960.75
2022-08-08T01:42:58.398Z,960.77
2022-08-08T01:45:58.642Z,960.73
2022-08-08T01:48:59.258Z,960.7
2022-08-08T01:52:49.631Z,960.78
2022-08-08T01:55:18.788Z,960.66
2022-08-08T01:58:11.261Z,960.72
2022-08-08T02:00:59.430Z,960.71
2022-08-08T02:03:59.307Z,960.74
2022-08-08T02:06:58.423Z,960.68
2022-08-08T02:10:04.205Z,960.66
2022-08-08T02:12:59.258Z,960.69
2022-08-08T02:15:59.257Z,960.74
2022-08-08T02:18:59.521Z,960.77
2022-08-08T02:21:58.583Z,960.71
2022-08-08T02:24:59.271Z,960.73
2022-08-08T02:27:58.933Z,960.73
2022-08-08T02:31:01.886Z,960.7
2022-08-08T02:34:07.178Z,960.64
2022-08-08T02:36:58.902Z,960.64
2022-08-08T02:40:00.068Z,960.5
2022-08-08T02:43:23.360Z,960.56
2022-08-08T02:45:59.204Z,960.65
2022-08-08T02:48:58.780Z,960.62
2022-08-08T02:52:00.463Z,960.69
2022-08-08T02:54:58.461Z,960.62
2022-08-08T02:57:58.823Z,960.65
2022-08-08T03:00:59.028Z,960.61
2022-08-08T03:05:03.997Z,960.69
2022-08-08T03:06:59.058Z,960.71
2022-08-08T03:09:59.446Z,960.72
2022-08-08T03:13:02.552Z,960.69
2022-08-08T03:16:05.321Z,960.62
2022-08-08T03:18:58.581Z,960.72
2022-08-08T03:22:00.045Z,960.72
2022-08-08T03:24:59.059Z,960.79
2022-08-08T03:27:59.155Z,960.82
2022-08-08T03:31:22.074Z,960.89
2022-08-08T03:34:01.060Z,960.79
2022-08-08T03:36:59.036Z,960.8
2022-08-08T03:40:00.487Z,960.9
2022-08-08T03:43:16.661Z,960.87
2022-08-08T03:46:06.610Z,960.9
2022-08-08T03:49:56.395Z,960.96
2022-08-08T03:51:58.345Z,961.0
2022-08-08T03:55:09.502Z,961.01
2022-08-08T03:58:32.905Z,961.05
2022-08-08T04:01:02.589Z,960.98
2022-08-08T04:04:01.669Z,961.06
2022-08-08T04:07:01.165Z,961.06
2022-08-08T04:10:05.546Z,961.03
2022-08-08T04:12:58.477Z,960.97
2022-08-08T04:16:05.433Z,961.03
2022-08-08T04:18:58.613Z,961.02
2022-08-08T04:21:58.974Z,961.19
2022-08-08T04:24:58.706Z,961.17
2022-08-08T04:28:35.015Z,961.23
2022-08-08T04:30:58.775Z,961.21
2022-08-08T04:33:58.944Z,961.14
2022-08-08T04:36:58.738Z,961.26
2022-08-08T04:40:06.844Z,961.39
2022-08-08T04:43:01.090Z,961.36
2022-08-08T04:45:59.416Z,961.47
2022-08-08T04:48:59.063Z,961.45
2022-08-08T04:51:59.348Z,961.45
2022-08-08T04:54:58.988Z,961.45
2022-08-08T04:57:59.274Z,961.44
2022-08-08T05:00:59.600Z,961.49
2022-08-08T05:04:07.556Z,961.41
2022-08-08T05:06:59.504Z,961.48
2022-08-08T05:09:59.839Z,961.51
2022-08-08T05:13:01.621Z,961.48
2022-08-08T05:16:51.210Z,961.5
2022-08-08T05:18:59.727Z,961.41
2022-08-08T05:21:59.694Z,961.36
2022-08-08T05:24:59.693Z,961.43
2022-08-08T05:27:58.649Z,961.52
2022-08-08T05:31:02.039Z,961.56
2022-08-08T05:33:58.524Z,961.56
2022-08-08T05:36:58.521Z,961.61
2022-08-08T05:39:59.454Z,961.62
2022-08-08T05:42:59.686Z,961.63
2022-08-08T05:46:03.394Z,961.6
2022-08-08T05:48:59.315Z,961.69
2022-08-08T05:51:59.591Z,961.63
2022-08-08T05:55:04.443Z,961.64
2022-08-08T05:58:05.988Z,961.66
2022-08-08T06:00:59.408Z,961.71
2022-08-08T06:03:59.066Z,961.72
2022-08-08T06:07:00.323Z,961.72
2022-08-08T06:10:02.507Z,961.75
2022-08-08T06:12:59.097Z,961.83
2022-08-08T06:15:59.082Z,961.82
2022-08-08T06:18:58.951Z,961.87
2022-08-08T06:21:58.908Z,961.86
2022-08-08T06:24:59.851Z,961.83
2022-08-08T06:27:59.681Z,961.9
2022-08-08T06:30:58.761Z,961.85
2022-08-08T06:34:26.705Z,961.94
2022-08-08T06:36:58.958Z,961.92
2022-08-08T06:40:00.597Z,961.96
2022-08-08T06:42:59.221Z,962.01
2022-08-08T06:45:59.444Z,961.98
2022-08-08T06:48:58.596Z,961.9
2022-08-08T06:51:59.313Z,961.99
2022-08-08T06:54:59.556Z,962.0
2022-08-08T06:58:03.478Z,962.06
2022-08-08T07:00:59.422Z,961.99
2022-08-08T07:04:38.057Z,962.01
2022-08-08T07:06:59.221Z,962.03
2022-08-08T07:10:00.783Z,961.98
2022-08-08T07:12:59.274Z,962.04
2022-08-08T07:16:04.735Z,962.01
2022-08-08T07:18:59.139Z,962.02
2022-08-08T07:22:05.417Z,962.11
2022-08-08T07:24:59.470Z,962.12
2022-08-08T07:28:01.864Z,962.18
2022-08-08T07:30:59.500Z,962.15
2022-08-08T07:33:59.666Z,962.12
2022-08-08T07:36:58.313Z,962.14
2022-08-08T07:40:00.034Z,962.17
2022-08-08T07:42:59.400Z,962.23
2022-08-08T07:46:17.666Z,962.18
2022-08-08T07:48:59.656Z,962.21
2022-08-08T07:51:58.698Z,962.3
2022-08-08T07:54:58.757Z,962.27
2022-08-08T07:57:58.876Z,962.31
2022-08-08T08:01:00.249Z,962.3
2022-08-08T08:03:58.645Z,962.28
2022-08-08T08:06:58.983Z,962.33
2022-08-08T08:09:59.580Z,962.41
2022-08-08T08:12:58.954Z,962.42
2022-08-08T08:15:59.661Z,962.44
2022-08-08T08:18:58.792Z,962.4
2022-08-08T08:22:00.764Z,962.46
2022-08-08T08:24:59.389Z,962.44
2022-08-08T08:27:58.571Z,962.47
2022-08-08T08:30:59.176Z,962.46
2022-08-08T08:33:59.120Z,962.48
2022-08-08T08:36:58.202Z,962.5
2022-08-08T08:40:01.497Z,962.52
2022-08-08T08:42:58.830Z,962.4
2022-08-08T08:45:58.348Z,962.49
2022-08-08T08:48:59.240Z,962.47
2022-08-08T08:51:59.104Z,962.45
2022-08-08T08:54:58.991Z,962.54
2022-08-08T08:57:59.179Z,962.45
2022-08-08T09:01:08.771Z,962.54
2022-08-08T09:03:58.865Z,962.52
2022-08-08T09:06:59.198Z,962.53
2022-08-08T09:09:59.070Z,962.61
2022-08-08T09:12:59.227Z,962.53
2022-08-08T09:16:03.477Z,962.56
2022-08-08T09:18:58.474Z,962.61
2022-08-08T09:22:05.829Z,962.54
2022-08-08T09:24:58.815Z,962.58
2022-08-08T09:27:58.627Z,962.57
2022-08-08T09:30:59.295Z,962.56
2022-08-08T09:34:30.393Z,962.69
2022-08-08T09:37:51.393Z,962.63
2022-08-08T09:39:59.459Z,962.61
2022-08-08T09:42:58.840Z,962.69
2022-08-08T09:46:03.272Z,962.56
2022-08-08T09:49:18.639Z,962.61
2022-08-08T09:52:06.959Z,962.58
2022-08-08T09:54:58.965Z,962.63
2022-08-08T09:57:58.967Z,962.58
2022-08-08T10:00:59.561Z,962.48
2022-08-08T10:03:58.737Z,962.46
2022-08-08T10:06:58.737Z,962.5
2022-08-08T10:10:01.176Z,962.43
2022-08-08T10:13:06.222Z,962.42
2022-08-08T10:16:00.941Z,962.4
2022-08-08T10:18:58.810Z,962.37
2022-08-08T10:21:58.645Z,962.29
2022-08-08T10:25:00.052Z,962.29
2022-08-08T10:27:58.900Z,962.33
2022-08-08T10:31:01.118Z,962.31
2022-08-08T10:34:18.858Z,962.34
2022-08-08T10:36:59.661Z,962.31
2022-08-08T10:39:59.469Z,962.34
2022-08-08T10:42:58.500Z,962.31
2022-08-08T10:45:59.715Z,962.33
2022-08-08T10:48:59.551Z,962.33
2022-08-08T10:51:58.253Z,962.22
2022-08-08T10:54:58.996Z,962.19
2022-08-08T10:57:59.204Z,962.3
2022-08-08T11:01:02.214Z,962.21
2022-08-08T11:04:16.171Z,962.19
2022-08-08T11:06:58.933Z,962.21
2022-08-08T11:09:59.828Z,962.2
2022-08-08T11:13:27.115Z,962.2
2022-08-08T11:16:00.735Z,962.19
2022-08-08T11:18:59.286Z,962.17
2022-08-08T11:21:59.376Z,962.1
2022-08-08T11:25:01.368Z,962.05
2022-08-08T11:27:59.034Z,961.95
2022-08-08T11:30:59.956Z,962.05
2022-08-08T11:34:03.062Z,961.95
2022-08-08T11:36:59.515Z,961.9
2022-08-08T11:39:58.791Z,961.94
2022-08-08T11:42:58.874Z,961.94
2022-08-08T11:46:14.305Z,961.92
2022-08-08T11:48:59.204Z,962.01
2022-08-08T11:51:59.335Z,961.98
2022-08-08T11:54:58.949Z,962.02
2022-08-08T11:58:04.150Z,962.07
2022-08-08T12:01:00.051Z,961.94
2022-08-08T12:03:59.710Z,961.87
2022-08-08T12:06:59.411Z,961.97
2022-08-08T12:10:01.979Z,961.93
2022-08-08T12:12:59.000Z,961.83
2022-08-08T12:15:59.611Z,961.8
2022-08-08T12:18:59.012Z,961.76
2022-08-08T12:22:05.478Z,961.78
2022-08-08T12:24:59.098Z,961.88
2022-08-08T12:27:59.349Z,961.76
2022-08-08T12:30:59.205Z,961.69
2022-08-08T12:34:01.767Z,961.74
2022-08-08T12:36:59.148Z,961.7
2022-08-08T12:40:01.714Z,961.67
2022-08-08T12:42:59.456Z,961.79
2022-08-08T12:46:03.414Z,961.73
2022-08-08T12:49:24.975Z,961.68
2022-08-08T12:52:00.970Z,961.65
2022-08-08T12:54:58.744Z,961.57
2022-08-08T12:57:59.445Z,961.66
2022-08-08T13:00:59.407Z,961.7
2022-08-08T13:03:59.475Z,961.6
2022-08-08T13:07:00.757Z,961.68
2022-08-08T13:10:05.168Z,961.62
2022-08-08T13:12:59.424Z,961.75
2022-08-08T13:15:59.263Z,961.6
2022-08-08T13:19:00.754Z,961.64
2022-08-08T13:22:04.715Z,961.68
2022-08-08T13:24:58.504Z,961.64
2022-08-08T13:28:00.792Z,961.55
2022-08-08T13:30:59.013Z,961.45
2022-08-08T13:33:59.038Z,961.48
2022-08-08T13:36:59.486Z,961.47
2022-08-08T13:40:00.004Z,961.54
2022-08-08T13:42:58.911Z,961.49
2022-08-08T13:45:58.932Z,961.43
2022-08-08T13:49:12.122Z,961.46
2022-08-08T13:51:59.421Z,961.47
2022-08-08T13:54:58.580Z,961.42
2022-08-08T13:58:11.274Z,961.49
2022-08-08T14:00:58.786Z,961.37
2022-08-08T14:03:59.296Z,961.42
2022-08-08T14:06:58.547Z,961.4
2022-08-08T14:10:05.381Z,961.37
2022-08-08T14:12:59.209Z,961.36
2022-08-08T14:15:59.495Z,961.53
2022-08-08T14:18:59.068Z,961.4
2022-08-08T14:21:59.568Z,961.33
2022-08-08T14:24:59.995Z,961.33
2022-08-08T14:27:59.984Z,961.24
2022-08-08T14:31:00.119Z,961.19
2022-08-08T14:33:58.986Z,961.2
2022-08-08T14:36:59.563Z,961.24
2022-08-08T14:40:05.481Z,961.39
2022-08-08T14:43:01.653Z,961.23
2022-08-08T14:46:02.492Z,961.27
2022-08-08T14:48:59.381Z,961.14
2022-08-08T14:51:59.336Z,961.16
2022-08-08T14:54:59.407Z,961.09
2022-08-08T14:58:03.040Z,961.13
2022-08-08T15:00:59.066Z,961.12
2022-08-08T15:04:08.279Z,961.15
2022-08-08T15:06:58.968Z,961.12
2022-08-08T15:09:58.654Z,961.06
2022-08-08T15:12:59.043Z,961.25
2022-08-08T15:16:02.837Z,961.1
2022-08-08T15:18:59.220Z,961.15
2022-08-08T15:21:59.480Z,961.15
2022-08-08T15:24:58.633Z,961.18
2022-08-08T15:28:32.535Z,961.1
2022-08-08T15:30:59.395Z,961.1
2022-08-08T15:34:00.036Z,961.08
2022-08-08T15:36:59.337Z,961.07
2022-08-08T15:39:59.334Z,960.99
2022-08-08T15:42:59.226Z,961.05
2022-08-08T15:45:59.828Z,961.09
2022-08-08T15:48:59.000Z,961.09
2022-08-08T15:51:59.201Z,961.12
2022-08-08T15:54:58.601Z,961.05
2022-08-08T15:57:59.099Z,961.09
2022-08-08T16:00:59.499Z,961.08
2022-08-08T16:03:59.901Z,961.11
2022-08-08T16:06:59.463Z,961.08
2022-08-08T16:13:05.866Z,961.14
2022-08-08T16:13:26.585Z,961.11
2022-08-08T16:16:09.512Z,961.16
2022-08-08T16:18:59.799Z,961.14
2022-08-08T16:21:58.689Z,961.09
2022-08-08T16:25:03.782Z,961.18
2022-08-08T16:27:59.074Z,961.18
2022-08-08T16:30:59.630Z,961.08
2022-08-08T16:33:59.609Z,961.15
2022-08-08T16:36:59.219Z,961.14
2022-08-08T16:40:01.463Z,961.08
2022-08-08T16:42:59.710Z,961.14
2022-08-08T16:46:38.730Z,961.08
2022-08-08T16:48:59.057Z,961.06
2022-08-08T16:55:01.610Z,961.13
2022-08-08T16:55:42.507Z,961.2
2022-08-08T16:58:14.025Z,961.2
2022-08-08T17:01:00.480Z,961.17
2022-08-08T17:04:03.344Z,961.2
2022-08-08T17:06:59.327Z,961.12
2022-08-08T17:09:59.720Z,961.17
2022-08-08T17:12:59.070Z,961.22
2022-08-08T17:15:59.054Z,961.2
2022-08-08T17:19:00.510Z,961.24
2022-08-08T17:22:01.522Z,961.26
2022-08-08T17:24:59.875Z,961.26
2022-08-08T17:27:58.886Z,961.24
2022-08-08T17:30:58.901Z,961.32
2022-08-08T17:34:53.070Z,961.32
2022-08-08T17:37:03.519Z,961.43
2022-08-08T17:40:05.822Z,961.43
2022-08-08T17:42:58.656Z,961.4
2022-08-08T17:45:58.619Z,961.44
2022-08-08T17:48:59.218Z,961.5
2022-08-08T17:51:59.010Z,961.47
2022-08-08T17:54:58.872Z,961.51
2022-08-08T17:57:58.826Z,961.64
2022-08-08T18:01:32.128Z,961.63
2022-08-08T18:03:59.073Z,961.48
2022-08-08T18:06:59.229Z,961.58
2022-08-08T18:09:59.521Z,961.71
2022-08-08T18:12:58.657Z,961.65
2022-08-08T18:16:04.171Z,961.76
2022-08-08T18:18:59.546Z,961.65
2022-08-08T18:22:00.971Z,961.7
2022-08-08T18:24:58.712Z,961.69
2022-08-08T18:27:58.574Z,961.78
2022-08-08T18:30:59.981Z,961.76
2022-08-08T18:34:18.626Z,961.75
2022-08-08T18:36:59.086Z,961.79
2022-08-08T18:39:59.247Z,961.88
2022-08-08T18:42:58.567Z,961.88
2022-08-08T18:46:54.106Z,961.79
2022-08-08T18:48:59.334Z,961.87
2022-08-08T18:51:59.776Z,962.0
2022-08-08T18:55:09.322Z,962.03
2022-08-08T18:57:59.607Z,962.03
2022-08-08T19:00:58.817Z,962.1
2022-08-08T19:04:10.010Z,962.06
2022-08-08T19:06:58.540Z,962.15
2022-08-08T19:10:14.671Z,962.16
2022-08-08T19:13:00.126Z,962.28
2022-08-08T19:15:59.590Z,962.13
2022-08-08T19:19:02.176Z,962.18
2022-08-08T19:21:59.544Z,962.31
2022-08-08T19:25:04.790Z,962.34
2022-08-08T19:27:59.992Z,962.37
2022-08-08T19:31:03.340Z,962.37
2022-08-08T19:34:30.192Z,962.4
2022-08-08T19:36:59.387Z,962.43
2022-08-08T19:39:59.020Z,962.33
2022-08-08T19:42:58.913Z,962.43
2022-08-08T19:46:00.801Z,962.54
2022-08-08T19:48:59.046Z,962.53
2022-08-08T19:51:59.182Z,962.5
2022-08-08T19:55:00.549Z,962.56
2022-08-08T19:57:58.876Z,962.51
2022-08-08T20:00:58.961Z,962.48
2022-08-08T20:04:01.262Z,962.5
2022-08-08T20:07:03.567Z,962.6
2022-08-08T20:09:59.472Z,962.59
2022-08-08T20:13:14.753Z,962.55
2022-08-08T20:16:01.271Z,962.53
2022-08-08T20:18:58.706Z,962.7
2022-08-08T20:22:02.887Z,962.55
2022-08-08T20:25:00.289Z,962.59
2022-08-08T20:28:02.161Z,962.48
2022-08-08T20:31:00.060Z,962.68
2022-08-08T20:34:27.398Z,962.55
2022-08-08T20:36:59.320Z,962.62
2022-08-08T20:39:59.756Z,962.65
2022-08-08T20:42:59.969Z,962.72
2022-08-08T20:46:03.919Z,962.56
2022-08-08T20:49:00.054Z,962.61
2022-08-08T20:51:59.398Z,962.65
2022-08-08T20:54:59.351Z,962.67
2022-08-08T20:57:59.517Z,962.65
2022-08-08T21:00:59.967Z,962.7
2022-08-08T21:04:01.718Z,962.61
2022-08-08T21:06:59.556Z,962.64
2022-08-08T21:10:08.008Z,962.6
2022-08-08T21:13:00.254Z,962.64
2022-08-08T21:16:05.718Z,962.63
2022-08-08T21:18:59.966Z,962.56
2022-08-08T21:21:59.256Z,962.72
2022-08-08T21:24:59.325Z,962.55
2022-08-08T21:28:09.292Z,962.56
2022-08-08T21:30:59.645Z,962.62
2022-08-08T21:33:59.161Z,962.61
2022-08-08T21:37:02.744Z,962.68
2022-08-08T21:40:00.198Z,962.61
2022-08-08T21:42:59.426Z,962.7
2022-08-08T21:48:07.424Z,962.69
2022-08-08T21:48:59.879Z,962.69
2022-08-08T21:54:32.652Z,962.63
2022-08-08T21:55:03.441Z,962.67
2022-08-08T21:58:05.192Z,962.63
2022-08-08T22:01:02.421Z,962.65
2022-08-08T22:03:59.616Z,962.6
2022-08-08T22:06:59.523Z,962.56
2022-08-08T22:09:59.737Z,962.63
2022-08-08T22:13:17.319Z,962.68
2022-08-08T22:16:00.740Z,962.68
2022-08-08T22:18:59.524Z,962.69
2022-08-08T22:21:59.460Z,962.75
2022-08-08T22:24:59.298Z,962.59
2022-08-08T22:28:03.536Z,962.67
2022-08-08T22:31:00.064Z,962.73
2022-08-08T22:34:13.697Z,962.61
2022-08-08T22:36:59.585Z,962.63
2022-08-08T22:40:02.013Z,962.6
2022-08-08T22:42:58.825Z,962.67
2022-08-08T22:45:59.343Z,962.71
2022-08-08T22:48:58.979Z,962.77
2022-08-08T22:51:58.522Z,962.82
2022-08-08T22:55:05.130Z,962.86
2022-08-08T22:57:58.668Z,962.77
2022-08-08T23:00:59.965Z,962.82
2022-08-08T23:03:59.861Z,962.91
2022-08-08T23:07:02.746Z,962.82
2022-08-08T23:09:59.541Z,962.79
2022-08-08T23:12:58.923Z,962.81
2022-08-08T23:16:38.624Z,962.69
2022-08-08T23:19:00.035Z,962.73
2022-08-08T23:21:59.124Z,962.76
2022-08-08T23:24:58.495Z,962.78
2022-08-08T23:27:59.242Z,962.69
2022-08-08T23:31:16.091Z,962.75
2022-08-08T23:34:16.610Z,962.65
2022-08-08T23:36:58.864Z,962.72
2022-08-08T23:39:59.350Z,962.77
2022-08-08T23:42:58.917Z,962.71
2022-08-08T23:49:03.891Z,962.8
2022-08-08T23:49:14.921Z,962.76
2022-08-08T23:52:08.136Z,962.66
2022-08-08T23:55:07.243Z,962.72
2022-08-08T23:58:01.871Z,962.63
